createdAt,value
2022-11-15T00:00:35.204Z,10.05
2022-11-15T00:03:01.770Z,12.15
2022-11-15T00:05:28.078Z,12.13
2022-11-15T00:07:56.065Z,13.43
2022-11-15T00:10:23.823Z,13.75
2022-11-15T00:12:50.191Z,13.15
2022-11-15T00:15:16.581Z,11.15
2022-11-15T00:17:42.946Z,10.68
2022-11-15T00:20:09.818Z,12.15
2022-11-15T00:22:36.137Z,11.52
2022-11-15T00:25:02.450Z,13.52
2022-11-15T00:27:28.819Z,11.68
2022-11-15T00:29:55.144Z,13.10
2022-11-15T00:32:21.495Z,14.95
2022-11-15T00:34:47.836Z,12.93
2022-11-15T00:37:14.156Z,11.57
2022-11-15T00:39:40.477Z,11.65
2022-11-15T00:42:06.914Z,11.38
2022-11-15T00:44:33.234Z,11.45
2022-11-15T00:46:59.579Z,10.82
2022-11-15T00:49:25.912Z,12.32
2022-11-15T00:51:52.292Z,9.95
2022-11-15T00:54:18.633Z,10.73
2022-11-15T00:56:44.965Z,9.23
2022-11-15T00:59:11.320Z,12.85
2022-11-15T01:01:37.629Z,10.60
2022-11-15T01:04:03.981Z,11.52
2022-11-15T01:06:30.300Z,12.23
2022-11-15T01:08:56.732Z,10.48
2022-11-15T01:11:23.102Z,15.95
2022-11-15T01:13:49.489Z,9.32
2022-11-15T01:16:19.252Z,11.15
2022-11-15T01:18:46.689Z,12.52
2022-11-15T01:21:15.903Z,10.57
2022-11-15T01:23:42.465Z,9.73
2022-11-15T01:26:12.208Z,9.88
2022-11-15T01:28:40.350Z,9.52
2022-11-15T01:31:16.079Z,9.50
2022-11-15T01:33:42.520Z,7.50
2022-11-15T01:36:19.853Z,9.90
2022-11-15T01:38:46.222Z,9.10
2022-11-15T01:41:20.236Z,9.82
2022-11-15T01:43:49.461Z,11.90
2022-11-15T01:46:24.196Z,10.38
2022-11-15T01:48:53.104Z,11.48
2022-11-15T01:51:21.557Z,11.75
2022-11-15T01:53:50.309Z,14.05
2022-11-15T01:56:21.398Z,9.60
2022-11-15T01:58:47.896Z,9.32
2022-11-15T02:01:14.543Z,10.40
2022-11-15T02:03:53.640Z,8.95
2022-11-15T02:06:21.316Z,11.43
2022-11-15T02:08:48.089Z,9.45
2022-11-15T02:11:14.490Z,9.50
2022-11-15T02:13:40.949Z,10.05
2022-11-15T02:16:16.739Z,9.25
2022-11-15T02:18:49.717Z,10.80
2022-11-15T02:21:36.920Z,9.60
2022-11-15T02:24:50.823Z,8.95
2022-11-15T02:27:53.723Z,11.15
2022-11-15T02:30:24.700Z,11.45
2022-11-15T02:32:55.782Z,8.77
2022-11-15T02:35:39.399Z,9.20
2022-11-15T02:38:14.960Z,10.90
2022-11-15T02:40:55.177Z,9.35
2022-11-15T02:43:58.364Z,8.95
2022-11-15T02:46:56.831Z,9.38
2022-11-15T02:49:25.712Z,15.65
2022-11-15T02:51:52.894Z,11.38
2022-11-15T02:54:26.069Z,9.40
2022-11-15T02:56:54.462Z,12.07
2022-11-15T02:59:39.213Z,10.20
2022-11-15T03:02:24.888Z,12.38
2022-11-15T03:04:57.958Z,11.05
2022-11-15T03:07:47.189Z,10.63
2022-11-15T03:10:29.465Z,9.48
2022-11-15T03:12:59.602Z,13.18
2022-11-15T03:15:31.954Z,11.57
2022-11-15T03:18:03.570Z,12.20
2022-11-15T03:20:30.355Z,10.68
2022-11-15T03:23:01.301Z,11.45
2022-11-15T03:25:29.822Z,10.98
2022-11-15T03:27:58.403Z,11.93
2022-11-15T03:30:24.820Z,12.05
2022-11-15T03:32:56.714Z,12.05
2022-11-15T03:35:28.181Z,10.98
2022-11-15T03:38:12.102Z,12.13
2022-11-15T03:40:43.348Z,11.02
2022-11-15T03:43:15.739Z,12.43
2022-11-15T03:45:48.381Z,9.80
2022-11-15T03:48:18.241Z,9.63
2022-11-15T03:50:44.884Z,9.77
2022-11-15T03:53:11.294Z,9.15
2022-11-15T03:55:37.624Z,13.50
2022-11-15T03:58:04.033Z,9.68
2022-11-15T04:00:30.698Z,9.20
2022-11-15T04:02:57.345Z,8.80
2022-11-15T04:05:23.810Z,9.52
2022-11-15T04:07:50.138Z,11.70
2022-11-15T04:10:16.685Z,9.38
2022-11-15T04:12:47.092Z,9.30
2022-11-15T04:15:16.652Z,9.98
2022-11-15T04:17:48.092Z,9.52
2022-11-15T04:20:38.940Z,11.32
2022-11-15T04:23:33.901Z,12.70
2022-11-15T04:26:02.735Z,9.70
2022-11-15T04:28:29.381Z,10.35
2022-11-15T04:30:55.767Z,8.38
2022-11-15T04:33:22.808Z,9.20
2022-11-15T04:36:09.124Z,8.63
2022-11-15T04:38:36.585Z,9.50
2022-11-15T04:41:03.360Z,8.82
2022-11-15T04:43:30.595Z,10.95
2022-11-15T04:45:57.146Z,9.55
2022-11-15T04:48:23.469Z,7.38
2022-11-15T04:50:49.958Z,7.88
2022-11-15T04:53:16.333Z,11.68
2022-11-15T04:55:45.813Z,10.10
2022-11-15T04:58:12.144Z,10.30
2022-11-15T05:00:38.524Z,10.57
2022-11-15T05:03:23.282Z,8.85
2022-11-15T05:05:49.605Z,11.30
2022-11-15T05:08:15.942Z,8.57
2022-11-15T05:10:42.301Z,8.57
2022-11-15T05:13:08.624Z,9.10
2022-11-15T05:15:34.944Z,10.95
2022-11-15T05:18:03.229Z,12.88
2022-11-15T05:20:29.545Z,9.25
2022-11-15T05:22:58.541Z,10.35
2022-11-15T05:25:24.949Z,8.75
2022-11-15T05:27:51.310Z,10.65
2022-11-15T05:30:17.852Z,9.20
2022-11-15T05:32:44.752Z,7.57
2022-11-15T05:35:19.509Z,8.48
2022-11-15T05:37:45.841Z,9.00
2022-11-15T05:40:12.170Z,9.02
2022-11-15T05:42:38.581Z,10.15
2022-11-15T05:45:06.742Z,9.68
2022-11-15T05:47:35.240Z,9.70
2022-11-15T05:50:01.657Z,10.07
2022-11-15T05:52:30.642Z,9.05
2022-11-15T05:54:57.821Z,8.90
2022-11-15T05:57:25.203Z,9.60
2022-11-15T05:59:51.753Z,9.75
2022-11-15T06:02:18.208Z,9.18
2022-11-15T06:04:44.634Z,8.80
2022-11-15T06:07:11.039Z,8.63
2022-11-15T06:09:37.396Z,12.80
2022-11-15T06:12:03.915Z,14.02
2022-11-15T06:14:30.758Z,10.43
2022-11-15T06:16:57.112Z,11.35
2022-11-15T06:19:23.433Z,11.20
2022-11-15T06:21:49.754Z,14.25
2022-11-15T06:24:16.081Z,10.93
2022-11-15T06:26:42.426Z,13.10
2022-11-15T06:29:09.018Z,12.05
2022-11-15T06:31:35.945Z,12.30
2022-11-15T06:34:02.305Z,11.32
2022-11-15T06:36:28.648Z,11.63
2022-11-15T06:38:54.966Z,12.10
2022-11-15T06:41:22.157Z,8.63
2022-11-15T06:43:48.488Z,9.63
2022-11-15T06:46:14.856Z,10.00
2022-11-15T06:48:41.204Z,11.13
2022-11-15T06:51:08.331Z,11.35
2022-11-15T06:53:35.167Z,10.73
2022-11-15T06:56:03.285Z,9.98
2022-11-15T06:58:30.062Z,9.55
2022-11-15T07:01:05.469Z,10.27
2022-11-15T07:03:32.577Z,11.15
2022-11-15T07:06:04.154Z,10.63
2022-11-15T07:08:33.072Z,13.32
2022-11-15T07:11:01.279Z,13.23
2022-11-15T07:13:29.071Z,9.70
2022-11-15T07:15:55.643Z,15.45
2022-11-15T07:18:22.038Z,12.25
2022-11-15T07:20:48.354Z,11.02
2022-11-15T07:23:14.820Z,11.00
2022-11-15T07:25:41.179Z,9.65
2022-11-15T07:28:07.679Z,8.73
2022-11-15T07:30:34.037Z,10.50
2022-11-15T07:33:01.359Z,9.70
2022-11-15T07:35:28.818Z,7.68
2022-11-15T07:38:03.154Z,7.43
2022-11-15T07:40:31.585Z,7.43
2022-11-15T07:43:02.369Z,8.85
2022-11-15T07:45:28.736Z,11.23
2022-11-15T07:47:56.801Z,8.00
2022-11-15T07:50:26.127Z,10.20
2022-11-15T07:52:56.428Z,10.80
2022-11-15T07:55:26.713Z,13.18
2022-11-15T07:57:53.425Z,8.48
2022-11-15T08:00:19.940Z,9.57
2022-11-15T08:02:46.669Z,12.63
2022-11-15T08:05:13.170Z,9.15
2022-11-15T08:07:41.011Z,14.10
2022-11-15T08:10:08.821Z,10.18
2022-11-15T08:12:35.586Z,9.73
2022-11-15T08:15:01.939Z,12.35
2022-11-15T08:17:28.369Z,11.02
2022-11-15T08:19:54.735Z,11.25
2022-11-15T08:22:21.043Z,11.90
2022-11-15T08:24:47.393Z,8.90
2022-11-15T08:27:16.624Z,10.82
2022-11-15T08:29:45.969Z,10.13
2022-11-15T08:32:12.336Z,9.45
2022-11-15T08:34:39.375Z,10.70
2022-11-15T08:37:07.959Z,10.27
2022-11-15T08:39:34.313Z,8.10
2022-11-15T08:42:00.678Z,9.40
2022-11-15T08:44:27.023Z,8.30
2022-11-15T08:46:53.441Z,9.98
2022-11-15T08:49:20.083Z,10.85
2022-11-15T08:51:46.425Z,11.68
2022-11-15T08:54:12.747Z,11.02
2022-11-15T08:56:39.177Z,10.82
2022-11-15T08:59:06.038Z,9.10
2022-11-15T09:01:33.384Z,11.13
2022-11-15T09:03:59.881Z,9.27
2022-11-15T09:06:26.630Z,13.05
2022-11-15T09:08:53.256Z,8.10
2022-11-15T09:11:22.185Z,9.32
2022-11-15T09:13:48.585Z,11.98
2022-11-15T09:16:16.120Z,13.68
2022-11-15T09:18:42.540Z,8.20
2022-11-15T09:21:09.687Z,11.60
2022-11-15T09:23:36.083Z,12.65
2022-11-15T09:26:04.082Z,10.65
2022-11-15T09:28:32.457Z,7.88
2022-11-15T09:31:00.413Z,10.02
2022-11-15T09:33:27.185Z,8.15
2022-11-15T09:35:54.626Z,7.78
2022-11-15T09:38:21.564Z,10.95
2022-11-15T09:40:53.407Z,8.77
2022-11-15T09:43:30.827Z,8.80
2022-11-15T09:46:08.941Z,10.00
2022-11-15T09:48:48.169Z,11.25
2022-11-15T09:51:47.353Z,11.25
2022-11-15T09:55:01.130Z,9.75
2022-11-15T09:57:35.945Z,8.07
2022-11-15T10:03:16.430Z,11.60
2022-11-15T10:05:52.008Z,12.45
2022-11-15T10:08:41.514Z,9.60
2022-11-15T10:14:19.794Z,8.00
2022-11-15T10:17:08.602Z,8.63
2022-11-15T10:19:53.585Z,11.45
2022-11-15T10:22:30.093Z,11.63
2022-11-15T10:25:14.745Z,9.98
2022-11-15T10:27:42.520Z,10.70
2022-11-15T10:30:14.169Z,9.40
2022-11-15T10:32:41.730Z,9.65
2022-11-15T10:35:29.269Z,8.57
2022-11-15T10:38:12.237Z,8.68
2022-11-15T10:40:40.529Z,10.23
2022-11-15T10:43:15.027Z,11.52
2022-11-15T10:45:41.987Z,12.13
2022-11-15T10:48:14.234Z,11.07
2022-11-15T10:50:42.674Z,10.65
2022-11-15T10:53:18.661Z,9.52
2022-11-15T10:55:48.721Z,9.93
2022-11-15T10:58:33.954Z,11.63
2022-11-15T11:01:10.907Z,11.60
2022-11-15T11:03:39.068Z,10.18
2022-11-15T11:06:10.520Z,12.00
2022-11-15T11:08:37.248Z,11.10
2022-11-15T11:11:04.941Z,12.15
2022-11-15T11:13:32.740Z,9.38
2022-11-15T11:16:20.262Z,9.27
2022-11-15T11:19:10.031Z,10.65
2022-11-15T11:21:50.565Z,11.85
2022-11-15T11:24:22.352Z,11.25
2022-11-15T11:27:00.473Z,9.75
2022-11-15T11:29:36.707Z,10.10
2022-11-15T11:32:20.995Z,12.15
2022-11-15T11:35:00.824Z,9.75
2022-11-15T11:37:41.074Z,12.65
2022-11-15T11:40:23.184Z,11.40
2022-11-15T11:43:08.270Z,12.57
2022-11-15T11:45:37.709Z,10.10
2022-11-15T11:48:30.104Z,11.30
2022-11-15T11:51:05.644Z,13.00
2022-11-15T11:53:37.913Z,8.25
2022-11-15T11:56:15.246Z,8.48
2022-11-15T11:58:44.757Z,9.40
2022-11-15T12:01:35.083Z,10.40
2022-11-15T12:04:21.799Z,10.13
2022-11-15T12:07:07.243Z,11.73
2022-11-15T12:09:45.098Z,13.10
2022-11-15T12:12:30.492Z,12.70
2022-11-15T12:15:02.065Z,9.60
2022-11-15T12:17:34.181Z,10.63
2022-11-15T12:20:04.254Z,9.38
2022-11-15T12:23:00.504Z,9.32
2022-11-15T12:25:41.171Z,8.55
2022-11-15T12:28:20.732Z,9.88
2022-11-15T12:30:52.336Z,7.60
2022-11-15T12:33:37.356Z,10.40
2022-11-15T12:36:07.153Z,10.93
2022-11-15T12:38:54.978Z,7.55
2022-11-15T12:41:26.695Z,11.07
2022-11-15T12:43:53.332Z,9.23
2022-11-15T12:46:19.569Z,12.23
2022-11-15T12:48:48.825Z,10.48
2022-11-15T12:51:15.185Z,8.45
2022-11-15T12:53:41.632Z,8.60
2022-11-15T12:56:21.318Z,8.93
2022-11-15T12:58:59.406Z,7.28
2022-11-15T13:01:31.520Z,8.27
2022-11-15T13:04:25.679Z,8.88
2022-11-15T13:06:54.640Z,9.67
2022-11-15T13:09:29.914Z,11.35
2022-11-15T13:11:58.074Z,10.18
2022-11-15T13:14:50.246Z,9.73
2022-11-15T13:17:19.362Z,10.15
2022-11-15T13:19:53.772Z,9.05
2022-11-15T13:22:38.521Z,10.55
2022-11-15T13:25:05.121Z,10.48
2022-11-15T13:27:32.107Z,8.23
2022-11-15T13:29:58.682Z,8.10
2022-11-15T13:32:25.603Z,9.70
2022-11-15T13:34:53.686Z,9.73
2022-11-15T13:37:23.010Z,8.40
2022-11-15T13:39:50.320Z,7.63
2022-11-15T13:42:21.275Z,7.25
2022-11-15T13:45:01.381Z,6.30
2022-11-15T13:47:28.971Z,6.93
2022-11-15T13:49:57.892Z,6.95
2022-11-15T13:52:28.020Z,7.38
2022-11-15T13:55:01.648Z,8.48
2022-11-15T13:57:54.966Z,8.18
2022-11-15T14:00:36.637Z,9.93
2022-11-15T14:03:18.636Z,8.15
2022-11-15T14:05:48.247Z,8.45
2022-11-15T14:08:24.694Z,10.45
2022-11-15T14:11:14.654Z,7.07
2022-11-15T14:13:42.127Z,7.53
2022-11-15T14:16:16.097Z,8.30
2022-11-15T14:18:47.274Z,9.63
2022-11-15T14:21:15.812Z,6.45
2022-11-15T14:23:42.645Z,6.20
2022-11-15T14:26:29.605Z,6.57
2022-11-15T14:28:55.987Z,8.40
2022-11-15T14:31:22.862Z,6.60
2022-11-15T14:33:49.558Z,7.40
2022-11-15T14:36:21.261Z,6.75
2022-11-15T14:38:48.130Z,6.30
2022-11-15T14:41:22.880Z,7.53
2022-11-15T14:43:49.647Z,7.30
2022-11-15T14:46:16.012Z,6.15
2022-11-15T14:48:42.528Z,9.93
2022-11-15T14:51:18.766Z,8.30
2022-11-15T14:53:46.114Z,7.40
2022-11-15T14:56:12.772Z,7.13
2022-11-15T14:58:39.120Z,5.82
2022-11-15T15:01:21.250Z,8.38
2022-11-15T15:03:47.918Z,7.85
2022-11-15T15:06:18.058Z,8.23
2022-11-15T15:08:44.878Z,6.45
2022-11-15T15:11:17.420Z,7.78
2022-11-15T15:13:43.941Z,5.13
2022-11-15T15:16:10.461Z,6.07
2022-11-15T15:18:36.817Z,7.85
2022-11-15T15:21:07.923Z,7.15
2022-11-15T15:23:36.409Z,7.28
2022-11-15T15:26:02.848Z,9.98
2022-11-15T15:28:34.210Z,9.20
2022-11-15T15:31:01.519Z,9.15
2022-11-15T15:33:27.886Z,9.48
2022-11-15T15:35:54.225Z,12.43
2022-11-15T15:38:20.669Z,9.82
2022-11-15T15:40:47.005Z,9.30
2022-11-15T15:43:13.377Z,6.22
2022-11-15T15:45:41.145Z,7.65
2022-11-15T15:48:12.102Z,6.72
2022-11-15T15:50:39.204Z,11.00
2022-11-15T15:53:06.271Z,11.65
2022-11-15T15:55:32.905Z,9.43
2022-11-15T15:57:59.348Z,13.20
2022-11-15T16:00:26.297Z,11.65
2022-11-15T16:02:53.488Z,10.35
2022-11-15T16:05:19.865Z,10.88
2022-11-15T16:07:47.289Z,9.25
2022-11-15T16:10:26.762Z,9.68
2022-11-15T16:12:57.130Z,10.48
2022-11-15T16:15:25.334Z,8.32
2022-11-15T16:17:52.743Z,6.60
2022-11-15T16:20:43.480Z,6.13
2022-11-15T16:23:11.594Z,5.60
2022-11-15T16:25:57.111Z,6.95
2022-11-15T16:28:24.332Z,5.72
2022-11-15T16:31:00.503Z,9.90
2022-11-15T16:33:26.805Z,4.75
2022-11-15T16:35:53.204Z,6.47
2022-11-15T16:38:21.158Z,6.65
2022-11-15T16:40:47.572Z,7.35
2022-11-15T16:43:14.108Z,7.47
2022-11-15T16:45:40.714Z,7.40
2022-11-15T16:48:07.029Z,5.90
2022-11-15T16:50:40.658Z,5.15
2022-11-15T16:53:07.298Z,7.13
2022-11-15T16:55:33.709Z,5.47
2022-11-15T16:58:01.289Z,5.00
2022-11-15T17:00:27.853Z,5.97
2022-11-15T17:02:55.840Z,7.35
2022-11-15T17:05:23.806Z,5.88
2022-11-15T17:07:54.047Z,16.13
2022-11-15T17:10:24.544Z,35.60
2022-11-15T17:12:51.250Z,24.95
2022-11-15T17:15:18.148Z,6.43
2022-11-15T17:17:45.281Z,6.40
2022-11-15T17:20:18.162Z,4.63
2022-11-15T17:22:45.127Z,4.63
2022-11-15T17:25:11.514Z,7.63
2022-11-15T17:27:37.864Z,6.05
2022-11-15T17:30:04.928Z,7.78
2022-11-15T17:32:31.435Z,4.93
2022-11-15T17:34:57.754Z,4.45
2022-11-15T17:37:24.361Z,3.97
2022-11-15T17:39:50.736Z,5.80
2022-11-15T17:42:17.072Z,7.45
2022-11-15T17:44:43.430Z,7.63
2022-11-15T17:47:09.744Z,7.45
2022-11-15T17:49:39.292Z,8.00
2022-11-15T17:52:05.913Z,14.82
2022-11-15T17:54:32.220Z,7.03
2022-11-15T17:56:58.623Z,5.97
2022-11-15T17:59:26.170Z,8.10
2022-11-15T18:01:53.883Z,7.80
2022-11-15T18:04:20.354Z,5.80
2022-11-15T18:06:46.848Z,6.57
2022-11-15T18:09:13.339Z,5.90
2022-11-15T18:11:41.856Z,8.27
2022-11-15T18:14:12.861Z,6.05
2022-11-15T18:16:40.159Z,5.43
2022-11-15T18:19:11.634Z,4.00
2022-11-15T18:21:55.886Z,7.75
2022-11-15T18:24:30.813Z,6.60
2022-11-15T18:26:58.038Z,9.50
2022-11-15T18:29:24.887Z,4.60
2022-11-15T18:31:55.290Z,6.13
2022-11-15T18:34:26.133Z,5.25
2022-11-15T18:36:53.113Z,5.13
2022-11-15T18:39:20.368Z,5.60
2022-11-15T18:41:46.826Z,6.35
2022-11-15T18:44:13.659Z,5.82
2022-11-15T18:46:40.049Z,5.93
2022-11-15T18:49:09.533Z,10.48
2022-11-15T18:51:37.711Z,6.50
2022-11-15T18:54:04.159Z,7.55
2022-11-15T18:56:31.693Z,6.47
2022-11-15T18:59:00.341Z,6.05
2022-11-15T19:01:29.000Z,5.65
2022-11-15T19:03:57.150Z,4.53
2022-11-15T19:06:30.194Z,5.85
2022-11-15T19:08:58.807Z,5.63
2022-11-15T19:11:31.247Z,5.82
2022-11-15T19:13:59.517Z,5.93
2022-11-15T19:16:27.284Z,7.68
2022-11-15T19:18:58.119Z,6.25
2022-11-15T19:21:25.659Z,6.80
2022-11-15T19:23:54.866Z,5.13
2022-11-15T19:26:22.395Z,6.72
2022-11-15T19:28:53.642Z,5.45
2022-11-15T19:31:20.859Z,8.93
2022-11-15T19:33:47.799Z,5.75
2022-11-15T19:36:17.295Z,5.28
2022-11-15T19:38:44.084Z,5.65
2022-11-15T19:41:12.598Z,6.82
2022-11-15T19:43:38.939Z,5.88
2022-11-15T19:46:06.672Z,5.90
2022-11-15T19:48:34.374Z,8.02
2022-11-15T19:51:02.207Z,7.38
2022-11-15T19:53:33.464Z,9.73
2022-11-15T19:56:07.004Z,6.00
2022-11-15T19:58:36.433Z,5.13
2022-11-15T20:01:17.664Z,4.95
2022-11-15T20:03:44.841Z,5.47
2022-11-15T20:06:15.591Z,8.55
2022-11-15T20:08:44.214Z,5.88
2022-11-15T20:11:11.377Z,6.68
2022-11-15T20:13:37.727Z,8.52
2022-11-15T20:16:04.606Z,4.93
2022-11-15T20:18:31.231Z,6.50
2022-11-15T20:20:58.969Z,5.68
2022-11-15T20:23:28.467Z,5.53
2022-11-15T20:25:55.624Z,7.68
2022-11-15T20:28:24.578Z,5.57
2022-11-15T20:30:53.249Z,8.18
2022-11-15T20:33:20.002Z,7.38
2022-11-15T20:35:46.620Z,5.78
2022-11-15T20:38:12.968Z,6.43
2022-11-15T20:40:39.843Z,7.38
2022-11-15T20:43:06.729Z,6.20
2022-11-15T20:45:33.079Z,6.43
2022-11-15T20:47:59.395Z,5.72
2022-11-15T20:50:41.525Z,5.93
2022-11-15T20:53:11.074Z,5.93
2022-11-15T20:55:41.465Z,7.28
2022-11-15T20:58:08.777Z,6.07
2022-11-15T21:00:36.697Z,5.03
2022-11-15T21:03:08.242Z,9.32
2022-11-15T21:05:38.532Z,7.63
2022-11-15T21:08:05.109Z,6.20
2022-11-15T21:10:50.245Z,5.80
2022-11-15T21:13:16.589Z,6.82
2022-11-15T21:15:43.005Z,5.80
2022-11-15T21:18:09.352Z,8.15
2022-11-15T21:20:35.707Z,7.32
2022-11-15T21:23:02.070Z,7.45
2022-11-15T21:25:28.368Z,5.72
2022-11-15T21:27:54.810Z,8.90
2022-11-15T21:30:21.198Z,9.00
2022-11-15T21:32:47.547Z,9.73
2022-11-15T21:35:14.233Z,7.05
2022-11-15T21:37:41.166Z,9.48
2022-11-15T21:40:08.340Z,7.03
2022-11-15T21:42:34.684Z,5.35
2022-11-15T21:45:01.024Z,7.43
2022-11-15T21:47:27.340Z,5.90
2022-11-15T21:49:53.793Z,7.38
2022-11-15T21:52:20.118Z,6.28
2022-11-15T21:54:46.454Z,6.47
2022-11-15T21:57:12.769Z,6.45
2022-11-15T21:59:59.060Z,8.88
2022-11-15T22:02:25.689Z,7.35
2022-11-15T22:04:52.130Z,7.20
2022-11-15T22:07:18.788Z,7.57
2022-11-15T22:09:54.503Z,8.88
2022-11-15T22:12:37.420Z,8.02
2022-11-15T22:15:04.077Z,7.55
2022-11-15T22:17:50.425Z,12.13
2022-11-15T22:20:43.075Z,7.05
2022-11-15T22:23:03.822Z,5.18
2022-11-15T22:25:30.536Z,8.43
2022-11-15T22:27:56.917Z,6.97
2022-11-15T22:30:23.403Z,6.03
2022-11-15T22:32:50.045Z,5.60
2022-11-15T22:35:18.232Z,8.18
2022-11-15T22:37:44.592Z,6.30
2022-11-15T22:40:10.973Z,7.72
2022-11-15T22:42:37.326Z,6.20
2022-11-15T22:45:04.162Z,6.32
2022-11-15T22:47:30.505Z,7.43
2022-11-15T22:49:56.848Z,7.07
2022-11-15T22:52:23.165Z,7.68
2022-11-15T22:54:49.541Z,8.27
2022-11-15T22:57:15.985Z,8.13
2022-11-15T22:59:42.445Z,6.93
2022-11-15T23:02:08.814Z,6.45
2022-11-15T23:04:35.180Z,6.18
2022-11-15T23:07:01.607Z,10.13
2022-11-15T23:09:27.993Z,6.45
2022-11-15T23:12:12.777Z,8.65
2022-11-15T23:14:39.127Z,8.15
2022-11-15T23:17:05.482Z,7.28
2022-11-15T23:19:31.826Z,7.07
2022-11-15T23:22:16.437Z,6.85
2022-11-15T23:24:42.801Z,7.47
2022-11-15T23:27:09.154Z,6.80
2022-11-15T23:29:56.435Z,8.57
2022-11-15T23:32:40.954Z,7.65
2022-11-15T23:37:33.754Z,6.88
2022-11-15T23:40:00.106Z,7.35
2022-11-15T23:42:26.668Z,6.80
2022-11-15T23:44:53.119Z,10.00
2022-11-15T23:47:19.536Z,7.68
2022-11-15T23:49:46.106Z,8.48
2022-11-15T23:52:12.550Z,6.60
2022-11-15T23:54:38.991Z,7.43
2022-11-15T23:57:07.009Z,8.27
2022-11-15T23:59:33.424Z,7.35
